createdAt,value
2023-04-20T00:01:42.574Z,88.84
2023-04-20T00:06:45.606Z,89.18
2023-04-20T00:11:48.779Z,89.68
2023-04-20T00:16:51.903Z,89.32
2023-04-20T00:21:54.898Z,89.25
2023-04-20T00:26:57.853Z,89.22
2023-04-20T00:32:01.272Z,89.28
2023-04-20T00:37:04.242Z,89.48
2023-04-20T00:42:09.056Z,90.48
2023-04-20T00:47:11.994Z,90.91
2023-04-20T00:52:15.104Z,91.08
2023-04-20T00:57:24.102Z,90.91
2023-04-20T01:02:27.889Z,90.84
2023-04-20T01:07:31.135Z,90.94
2023-04-20T01:12:34.782Z,90.58
2023-04-20T01:17:40.977Z,90.89
2023-04-20T01:22:45.943Z,90.92
2023-04-20T01:27:49.066Z,91.15
2023-04-20T01:32:52.117Z,91.50
2023-04-20T01:37:55.133Z,91.41
2023-04-20T01:42:58.128Z,91.38
2023-04-20T01:48:02.009Z,91.24
2023-04-20T01:53:04.975Z,91.29
2023-04-20T01:58:07.997Z,91.34
2023-04-20T02:03:11.305Z,91.42
2023-04-20T02:08:14.353Z,91.38
2023-04-20T02:13:17.314Z,91.50
2023-04-20T02:18:20.230Z,91.44
2023-04-20T02:23:23.213Z,91.58
2023-04-20T02:28:26.528Z,91.44
2023-04-20T02:33:31.532Z,91.62
2023-04-20T02:38:34.462Z,91.46
2023-04-20T02:43:37.785Z,91.63
2023-04-20T02:48:40.741Z,91.63
2023-04-20T02:53:43.740Z,91.58
2023-04-20T02:58:48.623Z,91.58
2023-04-20T03:03:51.892Z,91.90
2023-04-20T03:08:55.038Z,92.11
2023-04-20T03:13:57.980Z,92.25
2023-04-20T03:19:00.913Z,92.51
2023-04-20T03:24:04.705Z,92.41
2023-04-20T03:29:07.814Z,92.42
2023-04-20T03:34:10.884Z,92.54
2023-04-20T03:39:13.892Z,92.36
2023-04-20T03:44:16.866Z,92.71
2023-04-20T03:49:28.034Z,92.91
2023-04-20T03:54:31.418Z,92.99
2023-04-20T03:59:34.305Z,92.94
2023-04-20T04:04:37.431Z,92.77
2023-04-20T04:09:40.492Z,93.20
2023-04-20T04:14:43.496Z,93.40
2023-04-20T04:19:46.461Z,93.63
2023-04-20T04:24:49.468Z,93.54
2023-04-20T04:29:52.391Z,93.80
2023-04-20T04:34:55.859Z,94.04
2023-04-20T04:39:58.857Z,94.32
2023-04-20T04:45:04.916Z,94.56
2023-04-20T04:50:09.455Z,94.64
2023-04-20T04:55:13.803Z,94.67
2023-04-20T05:00:19.098Z,94.32
2023-04-20T05:05:22.626Z,94.35
2023-04-20T05:10:25.695Z,93.51
2023-04-20T05:15:28.639Z,92.79
2023-04-20T05:20:31.644Z,92.47
2023-04-20T05:25:34.866Z,92.25
2023-04-20T05:30:37.871Z,92.07
2023-04-20T05:35:41.449Z,91.40
2023-04-20T05:40:44.500Z,90.56
2023-04-20T05:45:49.199Z,89.50
2023-04-20T05:50:52.126Z,88.81
2023-04-20T05:55:55.295Z,88.06
2023-04-20T06:00:58.330Z,87.52
2023-04-20T06:06:01.237Z,85.93
2023-04-20T06:11:04.534Z,85.33
2023-04-20T06:16:09.882Z,84.01
2023-04-20T06:21:12.986Z,83.41
2023-04-20T06:26:16.369Z,82.33
2023-04-20T06:31:20.582Z,81.12
2023-04-20T06:36:24.372Z,79.61
2023-04-20T06:41:27.370Z,77.39
2023-04-20T06:46:30.780Z,75.23
2023-04-20T06:51:34.665Z,72.41
2023-04-20T06:56:37.667Z,71.40
2023-04-20T07:01:40.676Z,70.40
2023-04-20T07:06:43.686Z,69.60
2023-04-20T07:11:46.775Z,68.79
2023-04-20T07:16:53.940Z,66.67
2023-04-20T07:21:56.965Z,64.29
2023-04-20T07:26:59.988Z,60.35
2023-04-20T07:32:02.946Z,60.65
2023-04-20T07:37:06.211Z,52.89
2023-04-20T07:42:09.345Z,55.30
2023-04-20T07:47:12.319Z,53.85
2023-04-20T07:52:16.853Z,51.49
2023-04-20T07:57:21.242Z,49.61
2023-04-20T08:02:24.682Z,50.02
2023-04-20T08:07:28.221Z,49.08
2023-04-20T08:12:31.232Z,49.16
2023-04-20T08:17:34.907Z,50.32
2023-04-20T08:22:39.339Z,50.42
2023-04-20T08:27:42.379Z,49.89
2023-04-20T08:32:45.817Z,48.93
2023-04-20T08:37:49.361Z,49.81
2023-04-20T08:42:53.025Z,49.24
2023-04-20T08:47:59.175Z,47.31
2023-04-20T08:53:03.486Z,44.55
2023-04-20T08:58:06.512Z,44.93
2023-04-20T09:03:09.600Z,42.45
2023-04-20T09:08:12.724Z,41.10
2023-04-20T09:13:23.379Z,38.64
2023-04-20T09:18:26.367Z,36.76
2023-04-20T09:23:29.310Z,36.80
2023-04-20T09:28:39.266Z,37.23
2023-04-20T09:33:42.218Z,36.79
2023-04-20T09:38:45.692Z,35.40
2023-04-20T09:43:48.893Z,34.96
2023-04-20T09:48:52.158Z,34.67
2023-04-20T09:54:01.186Z,35.52
2023-04-20T09:59:04.909Z,33.98
2023-04-20T10:04:11.071Z,33.91
2023-04-20T10:09:25.920Z,32.60
2023-04-20T10:14:29.288Z,34.25
2023-04-20T10:19:43.751Z,35.55
2023-04-20T10:24:47.162Z,36.68
2023-04-20T10:29:50.209Z,37.50
2023-04-20T10:35:08.768Z,36.92
2023-04-20T10:40:13.148Z,37.96
2023-04-20T10:45:16.201Z,35.93
2023-04-20T10:50:19.613Z,36.72
2023-04-20T10:55:25.890Z,37.68
2023-04-20T11:00:30.914Z,36.94
2023-04-20T11:05:33.713Z,35.50
2023-04-20T11:10:42.296Z,36.18
2023-04-20T11:15:45.345Z,34.12
2023-04-20T11:20:54.046Z,33.59
2023-04-20T11:25:57.529Z,34.96
2023-04-20T11:31:01.098Z,33.35
2023-04-20T11:36:04.506Z,34.22
2023-04-20T11:41:07.974Z,32.53
2023-04-20T11:46:20.482Z,32.79
2023-04-20T11:51:23.560Z,30.66
2023-04-20T11:56:26.611Z,30.27
2023-04-20T12:01:29.862Z,30.08
2023-04-20T12:06:33.350Z,30.16
2023-04-20T12:11:36.615Z,26.32
2023-04-20T12:16:39.626Z,26.87
2023-04-20T12:21:42.594Z,27.85
2023-04-20T12:26:46.031Z,29.26
2023-04-20T12:31:49.061Z,31.44
2023-04-20T12:36:52.114Z,31.85
2023-04-20T12:41:55.578Z,33.22
2023-04-20T12:46:58.569Z,32.81
2023-04-20T12:52:01.606Z,33.03
2023-04-20T12:57:04.940Z,32.08
2023-04-20T13:02:07.888Z,28.74
2023-04-20T13:07:12.021Z,28.85
2023-04-20T13:12:15.224Z,27.63
2023-04-20T13:17:18.447Z,28.82
2023-04-20T13:22:21.526Z,28.52
2023-04-20T13:27:25.574Z,28.39
2023-04-20T13:32:28.992Z,28.61
2023-04-20T13:37:33.343Z,29.33
2023-04-20T13:42:36.598Z,29.26
2023-04-20T13:47:40.623Z,28.02
2023-04-20T13:52:43.659Z,26.26
2023-04-20T13:57:47.252Z,27.62
2023-04-20T14:02:50.320Z,26.11
2023-04-20T14:07:53.345Z,25.20
2023-04-20T14:12:56.640Z,23.78
2023-04-20T14:18:00.595Z,23.93
2023-04-20T14:23:03.582Z,24.82
2023-04-20T14:28:06.948Z,23.08
2023-04-20T14:33:09.848Z,24.62
2023-04-20T14:38:12.648Z,23.76
2023-04-20T14:43:16.314Z,22.17
2023-04-20T14:48:19.339Z,23.89
2023-04-20T14:53:22.475Z,22.62
2023-04-20T14:58:25.546Z,24.50
2023-04-20T15:03:29.017Z,25.51
2023-04-20T15:08:32.263Z,23.37
2023-04-20T15:13:35.371Z,24.07
2023-04-20T15:18:38.327Z,24.96
2023-04-20T15:23:41.130Z,24.25
2023-04-20T15:28:45.190Z,25.04
2023-04-20T15:33:48.469Z,25.15
2023-04-20T15:38:54.551Z,25.26
2023-04-20T15:43:59.202Z,25.69
2023-04-20T15:49:02.243Z,26.52
2023-04-20T15:54:06.102Z,27.37
2023-04-20T15:59:09.125Z,32.06
2023-04-20T16:04:12.208Z,33.03
2023-04-20T16:09:15.617Z,35.58
2023-04-20T16:14:18.873Z,37.74
2023-04-20T16:19:22.002Z,39.52
2023-04-20T16:24:25.549Z,41.18
2023-04-20T16:29:29.006Z,42.34
2023-04-20T16:34:32.052Z,44.27
2023-04-20T16:39:35.400Z,46.11
2023-04-20T16:44:41.564Z,47.23
2023-04-20T16:49:44.954Z,48.21
2023-04-20T16:54:48.194Z,48.93
2023-04-20T16:59:51.166Z,49.02
2023-04-20T17:04:54.169Z,50.76
2023-04-20T17:09:57.462Z,54.87
2023-04-20T17:15:00.955Z,54.45
2023-04-20T17:20:07.156Z,56.36
2023-04-20T17:25:10.468Z,55.83
2023-04-20T17:30:14.232Z,56.46
2023-04-20T17:35:17.809Z,55.08
2023-04-20T17:40:20.929Z,58.45
2023-04-20T17:45:24.177Z,56.97
2023-04-20T17:50:27.164Z,57.66
2023-04-20T17:55:30.922Z,58.08
2023-04-20T18:00:33.760Z,58.93
2023-04-20T18:05:36.896Z,59.69
2023-04-20T18:10:40.241Z,58.51
2023-04-20T18:15:43.786Z,59.24
2023-04-20T18:20:48.145Z,60.11
2023-04-20T18:25:53.413Z,60.69
2023-04-20T18:30:58.806Z,61.16
2023-04-20T18:36:02.009Z,60.82
2023-04-20T18:41:05.289Z,61.54
2023-04-20T18:46:08.970Z,61.79
2023-04-20T18:51:12.175Z,62.29
2023-04-20T18:56:15.226Z,62.08
2023-04-20T19:01:18.315Z,62.96
2023-04-20T19:06:24.049Z,63.72
2023-04-20T19:11:28.954Z,64.23
2023-04-20T19:16:33.546Z,63.87
2023-04-20T19:21:36.643Z,64.46
2023-04-20T19:26:40.041Z,64.93
2023-04-20T19:31:42.950Z,65.34
2023-04-20T19:36:45.902Z,65.11
2023-04-20T19:41:48.951Z,65.20
2023-04-20T19:46:52.146Z,65.03
2023-04-20T19:51:54.956Z,65.19
2023-04-20T19:56:58.086Z,65.32
2023-04-20T20:02:01.225Z,65.14
2023-04-20T20:07:04.417Z,65.57
2023-04-20T20:12:10.832Z,66.26
2023-04-20T20:17:15.172Z,66.69
2023-04-20T20:22:19.594Z,66.76
2023-04-20T20:27:22.657Z,66.75
2023-04-20T20:32:26.045Z,67.04
2023-04-20T20:37:34.668Z,67.41
2023-04-20T20:42:40.103Z,67.64
2023-04-20T20:47:45.323Z,67.78
2023-04-20T20:52:49.222Z,67.66
2023-04-20T20:57:52.339Z,69.30
2023-04-20T21:02:55.346Z,69.79
2023-04-20T21:07:58.438Z,70.76
2023-04-20T21:13:01.469Z,70.54
2023-04-20T21:18:04.617Z,70.56
2023-04-20T21:23:07.732Z,71.17
2023-04-20T21:28:10.838Z,71.29
2023-04-20T21:33:13.905Z,71.35
2023-04-20T21:38:16.751Z,71.05
2023-04-20T21:43:19.768Z,71.37
2023-04-20T21:48:23.031Z,71.33
2023-04-20T21:53:26.242Z,71.03
2023-04-20T21:58:29.481Z,70.69
2023-04-20T22:03:35.182Z,70.69
2023-04-20T22:08:40.140Z,70.61
2023-04-20T22:13:44.192Z,70.14
2023-04-20T22:18:48.068Z,69.98
2023-04-20T22:23:51.068Z,69.59
2023-04-20T22:28:53.804Z,69.45
2023-04-20T22:33:56.716Z,69.47
2023-04-20T22:38:59.678Z,69.20
2023-04-20T22:44:02.703Z,69.18
2023-04-20T22:49:07.051Z,69.70
2023-04-20T22:54:09.909Z,68.79
2023-04-20T22:59:12.976Z,68.69
2023-04-20T23:04:16.308Z,68.58
2023-04-20T23:09:20.747Z,68.41
2023-04-20T23:14:24.574Z,68.88
2023-04-20T23:19:28.429Z,69.12
2023-04-20T23:24:31.332Z,69.47
2023-04-20T23:29:34.447Z,69.28
2023-04-20T23:34:37.396Z,69.66
2023-04-20T23:39:40.452Z,70.14
2023-04-20T23:44:43.317Z,70.28
2023-04-20T23:49:47.103Z,70.31
2023-04-20T23:54:49.946Z,70.32
2023-04-20T23:59:52.843Z,70.29
